首页
METAR-TAF:

METAR-TAF

机场 :

哥本哈根凯斯楚普机场

哥本哈根, 丹麦

纬度: 55-37N, 经度: 012-39E, 海拔: 5米

当前天气观测

该预报发布于19分钟前的14:20 UTC
风速9节,风向西南
温度 5°C
湿度 87%
气压 1014 hPa
能見度: 8000
少量云层高于900英尺
多云层高于2900英尺

METAR: EKCH 261420Z 23009KT 8000 FEW009 BKN029 05/03 Q1014 TEMPO BKN009

时间: 15:39 (14:39 UTC)

预报

该预报发布于3小时和39分钟前的11:00 UTC
预报有效从26日的 12点(UTC)到 27日的 12点(UTC)
风速10节,风向南转西南
能见度10公里或以上
多云层高于800英尺
短暂存在
从 26日的 12点(UTC)到 26日的 21点(UTC)
散云层高于800英尺
几率 40%
从 26日的 21点(UTC)到 27日的 08点(UTC)
能見度: 0300
层高于200英尺
短暂存在
从 27日的 08点(UTC)到 27日的 12点(UTC)
能見度: 4000
多云层高于400英尺

TAF: EKCH 261100Z 2612/2712 21010KT 9999 BKN008 TEMPO 2612/2621 SCT008 PROB40 2621/2708 0300 FG VV002 TEMPO 2708/2712 4000 RA BKN004

超过4000个机场的气象观测和天气预报(METAR&TAF报告)。

可查询的气象台以黄色和红色小点在地图上表示。

将鼠标移到小点上方,可查看气象台名称。

然后点击查看天气观测和预报。

如需切换地图:点击带黑十字的绿色按钮放大地图;点击带横线的绿色按钮缩小地图;或者点击绿色箭头查看邻近地区的地图。


METAR-TAF: